sensor_id;sensor_type;location;lat;lon;timestamp;temperature;humidity
3194;DHT22;1608;50.860;13.466;2022-08-01T00:01:24;21.90;95.60
3194;DHT22;1608;50.860;13.466;2022-08-01T00:03:51;21.90;95.70
3194;DHT22;1608;50.860;13.466;2022-08-01T00:06:19;22.20;96.80
3194;DHT22;1608;50.860;13.466;2022-08-01T00:08:46;21.90;95.80
3194;DHT22;1608;50.860;13.466;2022-08-01T00:11:13;22.00;96.00
3194;DHT22;1608;50.860;13.466;2022-08-01T00:13:39;22.00;96.10
3194;DHT22;1608;50.860;13.466;2022-08-01T00:16:06;22.10;97.20
3194;DHT22;1608;50.860;13.466;2022-08-01T00:18:33;21.90;96.40
3194;DHT22;1608;50.860;13.466;2022-08-01T00:21:01;21.90;96.50
3194;DHT22;1608;50.860;13.466;2022-08-01T00:23:29;22.10;96.90
3194;DHT22;1608;50.860;13.466;2022-08-01T00:25:55;21.90;97.20
3194;DHT22;1608;50.860;13.466;2022-08-01T00:28:22;21.80;97.30
3194;DHT22;1608;50.860;13.466;2022-08-01T00:30:49;21.70;97.80
3194;DHT22;1608;50.860;13.466;2022-08-01T00:33:16;21.70;98.10
3194;DHT22;1608;50.860;13.466;2022-08-01T00:35:43;21.60;98.40
3194;DHT22;1608;50.860;13.466;2022-08-01T00:38:10;21.50;98.90
3194;DHT22;1608;50.860;13.466;2022-08-01T00:40:38;21.30;99.50
3194;DHT22;1608;50.860;13.466;2022-08-01T00:43:05;21.30;99.90
3194;DHT22;1608;50.860;13.466;2022-08-01T00:45:32;21.20;99.90
3194;DHT22;1608;50.860;13.466;2022-08-01T00:47:59;21.20;99.90
3194;DHT22;1608;50.860;13.466;2022-08-01T00:50:26;21.10;99.90
3194;DHT22;1608;50.860;13.466;2022-08-01T00:52:53;21.10;99.90
3194;DHT22;1608;50.860;13.466;2022-08-01T00:55:21;20.90;99.90
3194;DHT22;1608;50.860;13.466;2022-08-01T00:57:49;20.90;99.90
3194;DHT22;1608;50.860;13.466;2022-08-01T01:00:17;20.80;99.90
3194;DHT22;1608;50.860;13.466;2022-08-01T01:02:44;20.80;99.90
3194;DHT22;1608;50.860;13.466;2022-08-01T01:05:11;20.70;99.90
3194;DHT22;1608;50.860;13.466;2022-08-01T01:07:44;20.60;99.90
3194;DHT22;1608;50.860;13.466;2022-08-01T01:10:18;20.50;99.90
3194;DHT22;1608;50.860;13.466;2022-08-01T01:12:52;20.40;99.90
3194;DHT22;1608;50.860;13.466;2022-08-01T01:15:23;20.40;99.90
3194;DHT22;1608;50.860;13.466;2022-08-01T01:17:56;20.40;99.90
3194;DHT22;1608;50.860;13.466;2022-08-01T01:20:27;20.40;99.90
3194;DHT22;1608;50.860;13.466;2022-08-01T01:23:40;20.50;99.90
3194;DHT22;1608;50.860;13.466;2022-08-01T01:26:21;20.50;99.90
3194;DHT22;1608;50.860;13.466;2022-08-01T01:29:07;20.40;99.90
3194;DHT22;1608;50.860;13.466;2022-08-01T01:31:40;20.30;99.90
3194;DHT22;1608;50.860;13.466;2022-08-01T01:34:09;20.30;99.90
3194;DHT22;1608;50.860;13.466;2022-08-01T01:36:38;20.30;99.90
3194;DHT22;1608;50.860;13.466;2022-08-01T01:39:06;20.20;99.90
3194;DHT22;1608;50.860;13.466;2022-08-01T01:41:35;20.20;99.90
3194;DHT22;1608;50.860;13.466;2022-08-01T01:44:03;20.20;99.90
3194;DHT22;1608;50.860;13.466;2022-08-01T01:46:32;20.10;99.90
3194;DHT22;1608;50.860;13.466;2022-08-01T01:49:00;20.10;99.90
3194;DHT22;1608;50.860;13.466;2022-08-01T01:51:28;20.10;99.90
3194;DHT22;1608;50.860;13.466;2022-08-01T01:53:56;20.00;99.90
3194;DHT22;1608;50.860;13.466;2022-08-01T01:56:24;20.10;99.90
3194;DHT22;1608;50.860;13.466;2022-08-01T01:58:54;20.00;99.90
3194;DHT22;1608;50.860;13.466;2022-08-01T02:01:23;20.00;99.90
3194;DHT22;1608;50.860;13.466;2022-08-01T02:03:53;20.00;99.90
3194;DHT22;1608;50.860;13.466;2022-08-01T02:06:24;20.20;99.90
3194;DHT22;1608;50.860;13.466;2022-08-01T02:08:52;20.30;99.90
3194;DHT22;1608;50.860;13.466;2022-08-01T02:11:20;20.30;99.90
3194;DHT22;1608;50.860;13.466;2022-08-01T02:13:53;20.30;99.90
3194;DHT22;1608;50.860;13.466;2022-08-01T02:16:25;20.30;99.90
3194;DHT22;1608;50.860;13.466;2022-08-01T02:18:54;20.30;99.90
3194;DHT22;1608;50.860;13.466;2022-08-01T02:21:26;20.30;99.90
3194;DHT22;1608;50.860;13.466;2022-08-01T02:23:55;20.40;99.90
3194;DHT22;1608;50.860;13.466;2022-08-01T02:26:26;20.40;99.90
3194;DHT22;1608;50.860;13.466;2022-08-01T02:28:57;20.40;99.90
3194;DHT22;1608;50.860;13.466;2022-08-01T02:31:25;20.50;99.90
3194;DHT22;1608;50.860;13.466;2022-08-01T02:33:58;20.60;99.90
3194;DHT22;1608;50.860;13.466;2022-08-01T02:36:28;20.70;99.90
3194;DHT22;1608;50.860;13.466;2022-08-01T02:38:57;20.50;99.90
3194;DHT22;1608;50.860;13.466;2022-08-01T02:41:26;20.50;99.90
3194;DHT22;1608;50.860;13.466;2022-08-01T02:43:58;20.50;99.90
3194;DHT22;1608;50.860;13.466;2022-08-01T02:46:29;20.60;99.90
3194;DHT22;1608;50.860;13.466;2022-08-01T02:49:00;20.50;99.90
3194;DHT22;1608;50.860;13.466;2022-08-01T02:51:29;20.60;99.90
3194;DHT22;1608;50.860;13.466;2022-08-01T02:53:57;20.60;99.90
3194;DHT22;1608;50.860;13.466;2022-08-01T02:56:26;20.50;99.90
3194;DHT22;1608;50.860;13.466;2022-08-01T02:59:01;20.70;99.90
3194;DHT22;1608;50.860;13.466;2022-08-01T03:01:29;20.70;99.90
3194;DHT22;1608;50.860;13.466;2022-08-01T03:03:58;20.60;99.90
3194;DHT22;1608;50.860;13.466;2022-08-01T03:06:26;20.40;99.90
3194;DHT22;1608;50.860;13.466;2022-08-01T03:08:54;20.40;99.90
3194;DHT22;1608;50.860;13.466;2022-08-01T03:11:22;20.50;99.90
3194;DHT22;1608;50.860;13.466;2022-08-01T03:13:51;20.50;99.90
3194;DHT22;1608;50.860;13.466;2022-08-01T03:16:21;20.60;99.90
3194;DHT22;1608;50.860;13.466;2022-08-01T03:18:50;20.70;99.90
3194;DHT22;1608;50.860;13.466;2022-08-01T03:21:20;20.60;99.90
3194;DHT22;1608;50.860;13.466;2022-08-01T03:23:49;20.60;99.90
3194;DHT22;1608;50.860;13.466;2022-08-01T03:26:18;20.60;99.90
3194;DHT22;1608;50.860;13.466;2022-08-01T03:28:46;20.60;99.90
3194;DHT22;1608;50.860;13.466;2022-08-01T03:31:14;20.60;99.90
3194;DHT22;1608;50.860;13.466;2022-08-01T03:33:41;20.60;99.90
3194;DHT22;1608;50.860;13.466;2022-08-01T03:36:09;20.70;99.90
3194;DHT22;1608;50.860;13.466;2022-08-01T03:38:39;20.70;99.90
3194;DHT22;1608;50.860;13.466;2022-08-01T03:41:09;20.70;99.90
3194;DHT22;1608;50.860;13.466;2022-08-01T03:43:41;20.70;99.90
3194;DHT22;1608;50.860;13.466;2022-08-01T03:46:18;20.60;99.90
3194;DHT22;1608;50.860;13.466;2022-08-01T03:48:48;20.50;99.90
3194;DHT22;1608;50.860;13.466;2022-08-01T03:51:15;20.50;99.90
3194;DHT22;1608;50.860;13.466;2022-08-01T03:53:47;20.40;99.90
3194;DHT22;1608;50.860;13.466;2022-08-01T03:56:18;20.40;99.90
3194;DHT22;1608;50.860;13.466;2022-08-01T03:58:46;20.30;99.90
3194;DHT22;1608;50.860;13.466;2022-08-01T04:01:13;20.30;99.90
3194;DHT22;1608;50.860;13.466;2022-08-01T04:03:41;20.30;99.90
3194;DHT22;1608;50.860;13.466;2022-08-01T04:06:08;20.30;99.90
3194;DHT22;1608;50.860;13.466;2022-08-01T04:08:36;20.30;99.90
3194;DHT22;1608;50.860;13.466;2022-08-01T04:11:05;20.30;99.90
3194;DHT22;1608;50.860;13.466;2022-08-01T04:13:33;20.40;99.90
3194;DHT22;1608;50.860;13.466;2022-08-01T04:15:59;20.40;99.90
3194;DHT22;1608;50.860;13.466;2022-08-01T04:18:26;20.50;99.90
3194;DHT22;1608;50.860;13.466;2022-08-01T04:20:53;20.50;99.90
3194;DHT22;1608;50.860;13.466;2022-08-01T04:23:23;20.60;99.90
3194;DHT22;1608;50.860;13.466;2022-08-01T04:25:51;20.70;99.90
3194;DHT22;1608;50.860;13.466;2022-08-01T04:28:21;20.70;99.90
3194;DHT22;1608;50.860;13.466;2022-08-01T04:30:50;20.80;99.90
3194;DHT22;1608;50.860;13.466;2022-08-01T04:33:19;20.90;99.90
3194;DHT22;1608;50.860;13.466;2022-08-01T04:35:47;20.90;99.90
3194;DHT22;1608;50.860;13.466;2022-08-01T04:38:19;20.90;99.90
3194;DHT22;1608;50.860;13.466;2022-08-01T04:40:47;21.00;99.90
3194;DHT22;1608;50.860;13.466;2022-08-01T04:43:16;21.00;99.90
3194;DHT22;1608;50.860;13.466;2022-08-01T04:45:46;21.00;99.90
3194;DHT22;1608;50.860;13.466;2022-08-01T04:48:16;21.10;99.90
3194;DHT22;1608;50.860;13.466;2022-08-01T04:50:45;21.10;99.90
3194;DHT22;1608;50.860;13.466;2022-08-01T04:53:15;21.10;99.90
3194;DHT22;1608;50.860;13.466;2022-08-01T04:55:42;21.10;99.90
3194;DHT22;1608;50.860;13.466;2022-08-01T04:58:10;21.20;99.90
3194;DHT22;1608;50.860;13.466;2022-08-01T05:00:37;21.20;99.90
3194;DHT22;1608;50.860;13.466;2022-08-01T05:03:05;21.30;99.90
3194;DHT22;1608;50.860;13.466;2022-08-01T05:05:32;21.40;99.90
3194;DHT22;1608;50.860;13.466;2022-08-01T05:07:59;21.40;99.90
3194;DHT22;1608;50.860;13.466;2022-08-01T05:10:26;21.50;99.90
3194;DHT22;1608;50.860;13.466;2022-08-01T05:12:53;21.50;99.90
3194;DHT22;1608;50.860;13.466;2022-08-01T05:15:20;21.60;99.90
3194;DHT22;1608;50.860;13.466;2022-08-01T05:17:47;21.60;99.90
3194;DHT22;1608;50.860;13.466;2022-08-01T05:20:15;21.60;99.90
3194;DHT22;1608;50.860;13.466;2022-08-01T05:22:42;21.70;99.90
3194;DHT22;1608;50.860;13.466;2022-08-01T05:25:09;21.80;99.90
3194;DHT22;1608;50.860;13.466;2022-08-01T05:27:36;21.80;99.90
3194;DHT22;1608;50.860;13.466;2022-08-01T05:30:06;21.90;99.90
3194;DHT22;1608;50.860;13.466;2022-08-01T05:32:33;21.90;99.90
3194;DHT22;1608;50.860;13.466;2022-08-01T05:35:00;22.00;99.90
3194;DHT22;1608;50.860;13.466;2022-08-01T05:37:28;22.20;99.90
3194;DHT22;1608;50.860;13.466;2022-08-01T05:39:55;22.30;99.90
3194;DHT22;1608;50.860;13.466;2022-08-01T05:42:22;22.30;99.90
3194;DHT22;1608;50.860;13.466;2022-08-01T05:44:49;22.40;99.90
3194;DHT22;1608;50.860;13.466;2022-08-01T05:47:16;22.40;99.90
3194;DHT22;1608;50.860;13.466;2022-08-01T05:49:42;22.50;99.90
3194;DHT22;1608;50.860;13.466;2022-08-01T05:52:10;22.50;99.90
3194;DHT22;1608;50.860;13.466;2022-08-01T05:54:38;22.40;99.90
3194;DHT22;1608;50.860;13.466;2022-08-01T05:57:05;22.40;99.90
3194;DHT22;1608;50.860;13.466;2022-08-01T05:59:32;22.40;99.90
3194;DHT22;1608;50.860;13.466;2022-08-01T06:01:59;22.40;99.90
3194;DHT22;1608;50.860;13.466;2022-08-01T06:04:26;22.40;99.90
3194;DHT22;1608;50.860;13.466;2022-08-01T06:06:53;22.40;99.90
3194;DHT22;1608;50.860;13.466;2022-08-01T06:09:20;22.40;99.90
3194;DHT22;1608;50.860;13.466;2022-08-01T06:11:48;22.40;99.90
3194;DHT22;1608;50.860;13.466;2022-08-01T06:14:14;22.40;99.90
3194;DHT22;1608;50.860;13.466;2022-08-01T06:16:41;22.20;99.90
3194;DHT22;1608;50.860;13.466;2022-08-01T06:19:08;22.40;99.90
3194;DHT22;1608;50.860;13.466;2022-08-01T06:21:35;22.40;99.90
3194;DHT22;1608;50.860;13.466;2022-08-01T06:24:02;22.40;99.90
3194;DHT22;1608;50.860;13.466;2022-08-01T06:26:29;22.50;99.90
3194;DHT22;1608;50.860;13.466;2022-08-01T06:28:58;22.50;99.90
3194;DHT22;1608;50.860;13.466;2022-08-01T06:31:24;22.60;99.90
3194;DHT22;1608;50.860;13.466;2022-08-01T06:33:51;22.70;99.90
3194;DHT22;1608;50.860;13.466;2022-08-01T06:36:18;22.60;99.90
3194;DHT22;1608;50.860;13.466;2022-08-01T06:38:45;22.60;99.90
3194;DHT22;1608;50.860;13.466;2022-08-01T06:41:11;22.60;99.90
3194;DHT22;1608;50.860;13.466;2022-08-01T06:43:38;22.60;99.90
3194;DHT22;1608;50.860;13.466;2022-08-01T06:46:06;22.70;99.90
3194;DHT22;1608;50.860;13.466;2022-08-01T06:48:33;22.60;99.90
3194;DHT22;1608;50.860;13.466;2022-08-01T06:51:00;22.60;99.90
3194;DHT22;1608;50.860;13.466;2022-08-01T06:53:39;22.70;99.90
3194;DHT22;1608;50.860;13.466;2022-08-01T06:56:07;22.70;99.90
3194;DHT22;1608;50.860;13.466;2022-08-01T06:58:34;22.70;99.90
3194;DHT22;1608;50.860;13.466;2022-08-01T07:01:02;22.70;99.90
3194;DHT22;1608;50.860;13.466;2022-08-01T07:03:33;22.70;99.90
3194;DHT22;1608;50.860;13.466;2022-08-01T07:06:00;22.80;99.90
3194;DHT22;1608;50.860;13.466;2022-08-01T07:08:27;22.80;99.90
3194;DHT22;1608;50.860;13.466;2022-08-01T07:10:54;22.80;99.90
3194;DHT22;1608;50.860;13.466;2022-08-01T07:13:21;22.80;99.90
3194;DHT22;1608;50.860;13.466;2022-08-01T07:15:50;22.90;99.90
3194;DHT22;1608;50.860;13.466;2022-08-01T07:18:18;22.90;99.90
3194;DHT22;1608;50.860;13.466;2022-08-01T07:20:46;22.90;99.90
3194;DHT22;1608;50.860;13.466;2022-08-01T07:23:13;23.00;99.90
3194;DHT22;1608;50.860;13.466;2022-08-01T07:25:40;23.00;99.90
3194;DHT22;1608;50.860;13.466;2022-08-01T07:28:07;23.00;99.90
3194;DHT22;1608;50.860;13.466;2022-08-01T07:30:33;23.00;99.90
3194;DHT22;1608;50.860;13.466;2022-08-01T07:33:00;23.00;99.90
3194;DHT22;1608;50.860;13.466;2022-08-01T07:35:27;23.10;99.90
3194;DHT22;1608;50.860;13.466;2022-08-01T07:37:55;23.20;99.90
3194;DHT22;1608;50.860;13.466;2022-08-01T07:40:22;23.20;99.90
3194;DHT22;1608;50.860;13.466;2022-08-01T07:42:49;23.20;99.90
3194;DHT22;1608;50.860;13.466;2022-08-01T07:45:16;23.20;99.90
3194;DHT22;1608;50.860;13.466;2022-08-01T07:47:43;23.10;99.90
3194;DHT22;1608;50.860;13.466;2022-08-01T07:50:11;23.20;99.90
3194;DHT22;1608;50.860;13.466;2022-08-01T07:52:38;23.10;99.90
3194;DHT22;1608;50.860;13.466;2022-08-01T07:55:08;23.00;99.90
3194;DHT22;1608;50.860;13.466;2022-08-01T07:57:35;23.10;99.90
3194;DHT22;1608;50.860;13.466;2022-08-01T08:00:03;23.10;99.90
3194;DHT22;1608;50.860;13.466;2022-08-01T08:02:31;23.20;99.90
3194;DHT22;1608;50.860;13.466;2022-08-01T08:04:58;23.20;99.90
3194;DHT22;1608;50.860;13.466;2022-08-01T08:07:24;23.10;99.90
3194;DHT22;1608;50.860;13.466;2022-08-01T08:09:51;23.00;99.90
3194;DHT22;1608;50.860;13.466;2022-08-01T08:12:19;22.90;99.90
3194;DHT22;1608;50.860;13.466;2022-08-01T08:14:46;22.90;99.90
3194;DHT22;1608;50.860;13.466;2022-08-01T08:17:13;22.70;99.90
3194;DHT22;1608;50.860;13.466;2022-08-01T08:19:39;22.80;99.90
3194;DHT22;1608;50.860;13.466;2022-08-01T08:22:07;22.80;99.90
3194;DHT22;1608;50.860;13.466;2022-08-01T08:24:34;22.80;99.90
3194;DHT22;1608;50.860;13.466;2022-08-01T08:27:01;23.10;99.90
3194;DHT22;1608;50.860;13.466;2022-08-01T08:29:30;22.90;99.90
3194;DHT22;1608;50.860;13.466;2022-08-01T08:31:59;23.00;99.90
3194;DHT22;1608;50.860;13.466;2022-08-01T08:34:27;23.20;99.90
3194;DHT22;1608;50.860;13.466;2022-08-01T08:36:55;23.70;99.90
3194;DHT22;1608;50.860;13.466;2022-08-01T08:39:23;23.00;99.90
3194;DHT22;1608;50.860;13.466;2022-08-01T08:41:50;23.90;99.90
3194;DHT22;1608;50.860;13.466;2022-08-01T08:44:18;24.00;99.90
3194;DHT22;1608;50.860;13.466;2022-08-01T08:46:48;24.10;99.90
3194;DHT22;1608;50.860;13.466;2022-08-01T08:49:18;24.20;99.90
3194;DHT22;1608;50.860;13.466;2022-08-01T08:51:48;24.10;99.90
3194;DHT22;1608;50.860;13.466;2022-08-01T08:54:16;24.10;99.90
3194;DHT22;1608;50.860;13.466;2022-08-01T08:56:44;24.10;99.90
3194;DHT22;1608;50.860;13.466;2022-08-01T08:59:13;23.90;99.90
3194;DHT22;1608;50.860;13.466;2022-08-01T09:01:40;23.80;99.90
3194;DHT22;1608;50.860;13.466;2022-08-01T09:04:08;23.70;99.90
3194;DHT22;1608;50.860;13.466;2022-08-01T09:06:35;23.40;99.90
3194;DHT22;1608;50.860;13.466;2022-08-01T09:09:03;24.10;99.90
3194;DHT22;1608;50.860;13.466;2022-08-01T09:11:30;23.90;99.90
3194;DHT22;1608;50.860;13.466;2022-08-01T09:14:06;24.30;99.90
3194;DHT22;1608;50.860;13.466;2022-08-01T09:16:34;24.80;99.90
3194;DHT22;1608;50.860;13.466;2022-08-01T09:19:09;25.40;99.90
3194;DHT22;1608;50.860;13.466;2022-08-01T09:21:36;25.80;99.90
3194;DHT22;1608;50.860;13.466;2022-08-01T09:24:12;26.30;99.90
3194;DHT22;1608;50.860;13.466;2022-08-01T09:26:39;26.90;99.90
3194;DHT22;1608;50.860;13.466;2022-08-01T09:29:09;27.10;99.90
3194;DHT22;1608;50.860;13.466;2022-08-01T09:31:44;27.00;99.90
3194;DHT22;1608;50.860;13.466;2022-08-01T09:34:14;27.10;99.90
3194;DHT22;1608;50.860;13.466;2022-08-01T09:36:49;27.10;99.90
3194;DHT22;1608;50.860;13.466;2022-08-01T09:39:19;26.90;99.90
3194;DHT22;1608;50.860;13.466;2022-08-01T09:41:46;26.60;99.90
3194;DHT22;1608;50.860;13.466;2022-08-01T09:44:13;26.30;99.90
3194;DHT22;1608;50.860;13.466;2022-08-01T09:49:31;26.30;99.90
3194;DHT22;1608;50.860;13.466;2022-08-01T09:52:10;26.30;99.90
3194;DHT22;1608;50.860;13.466;2022-08-01T09:54:37;26.40;99.90
3194;DHT22;1608;50.860;13.466;2022-08-01T09:57:15;26.30;99.90
3194;DHT22;1608;50.860;13.466;2022-08-01T09:59:43;26.30;99.90
3194;DHT22;1608;50.860;13.466;2022-08-01T10:02:11;26.30;99.90
3194;DHT22;1608;50.860;13.466;2022-08-01T10:04:48;26.40;99.90
3194;DHT22;1608;50.860;13.466;2022-08-01T10:07:16;26.50;99.90
3194;DHT22;1608;50.860;13.466;2022-08-01T10:09:43;26.50;99.90
3194;DHT22;1608;50.860;13.466;2022-08-01T10:12:12;26.50;99.90
3194;DHT22;1608;50.860;13.466;2022-08-01T10:14:40;26.70;99.90
3194;DHT22;1608;50.860;13.466;2022-08-01T10:17:08;27.20;99.90
3194;DHT22;1608;50.860;13.466;2022-08-01T10:19:36;27.20;99.90
3194;DHT22;1608;50.860;13.466;2022-08-01T10:22:08;27.00;99.90
3194;DHT22;1608;50.860;13.466;2022-08-01T10:24:37;27.00;99.90
3194;DHT22;1608;50.860;13.466;2022-08-01T10:27:07;26.80;99.90
3194;DHT22;1608;50.860;13.466;2022-08-01T10:29:37;26.80;99.90
3194;DHT22;1608;50.860;13.466;2022-08-01T10:32:05;27.00;99.90
3194;DHT22;1608;50.860;13.466;2022-08-01T10:34:35;27.20;99.90
3194;DHT22;1608;50.860;13.466;2022-08-01T10:37:02;27.40;99.90
3194;DHT22;1608;50.860;13.466;2022-08-01T10:39:31;27.40;99.90
3194;DHT22;1608;50.860;13.466;2022-08-01T10:41:59;27.60;99.90
3194;DHT22;1608;50.860;13.466;2022-08-01T10:44:28;27.80;98.10
3194;DHT22;1608;50.860;13.466;2022-08-01T10:46:59;28.10;94.40
3194;DHT22;1608;50.860;13.466;2022-08-01T10:49:30;28.10;93.70
3194;DHT22;1608;50.860;13.466;2022-08-01T10:51:57;28.20;93.30
3194;DHT22;1608;50.860;13.466;2022-08-01T10:54:24;27.90;93.80
3194;DHT22;1608;50.860;13.466;2022-08-01T10:56:53;26.70;96.00
3194;DHT22;1608;50.860;13.466;2022-08-01T10:59:24;26.60;96.30
3194;DHT22;1608;50.860;13.466;2022-08-01T11:01:59;25.90;97.60
3194;DHT22;1608;50.860;13.466;2022-08-01T11:04:34;25.30;99.40
3194;DHT22;1608;50.860;13.466;2022-08-01T11:07:08;25.00;99.90
3194;DHT22;1608;50.860;13.466;2022-08-01T11:09:40;24.90;99.90
3194;DHT22;1608;50.860;13.466;2022-08-01T11:12:10;25.10;99.90
3194;DHT22;1608;50.860;13.466;2022-08-01T11:17:50;25.70;99.90
3194;DHT22;1608;50.860;13.466;2022-08-01T11:20:18;25.80;99.90
3194;DHT22;1608;50.860;13.466;2022-08-01T11:26:20;26.40;99.90
3194;DHT22;1608;50.860;13.466;2022-08-01T11:29:13;26.40;98.60
3194;DHT22;1608;50.860;13.466;2022-08-01T11:31:41;26.70;98.40
3194;DHT22;1608;50.860;13.466;2022-08-01T11:34:07;26.70;97.80
3194;DHT22;1608;50.860;13.466;2022-08-01T11:36:34;26.60;97.40
3194;DHT22;1608;50.860;13.466;2022-08-01T11:39:16;26.60;98.20
3194;DHT22;1608;50.860;13.466;2022-08-01T11:41:45;26.70;99.80
3194;DHT22;1608;50.860;13.466;2022-08-01T11:44:16;26.80;99.00
3194;DHT22;1608;50.860;13.466;2022-08-01T11:49:44;26.40;96.90
3194;DHT22;1608;50.860;13.466;2022-08-01T11:52:13;26.30;97.30
3194;DHT22;1608;50.860;13.466;2022-08-01T11:54:42;26.30;97.10
3194;DHT22;1608;50.860;13.466;2022-08-01T11:57:10;26.50;99.90
3194;DHT22;1608;50.860;13.466;2022-08-01T11:59:41;26.70;97.80
3194;DHT22;1608;50.860;13.466;2022-08-01T12:02:18;26.90;97.30
3194;DHT22;1608;50.860;13.466;2022-08-01T12:04:51;27.20;97.90
3194;DHT22;1608;50.860;13.466;2022-08-01T12:07:19;27.80;92.10
3194;DHT22;1608;50.860;13.466;2022-08-01T12:09:46;27.80;92.70
3194;DHT22;1608;50.860;13.466;2022-08-01T12:12:16;27.80;92.30
3194;DHT22;1608;50.860;13.466;2022-08-01T12:14:45;27.60;91.90
3194;DHT22;1608;50.860;13.466;2022-08-01T12:17:20;26.60;93.30
3194;DHT22;1608;50.860;13.466;2022-08-01T12:19:49;26.50;94.10
3194;DHT22;1608;50.860;13.466;2022-08-01T12:22:16;26.30;94.60
3194;DHT22;1608;50.860;13.466;2022-08-01T12:24:43;26.30;94.00
3194;DHT22;1608;50.860;13.466;2022-08-01T12:27:10;27.00;98.70
3194;DHT22;1608;50.860;13.466;2022-08-01T12:29:39;27.10;93.90
3194;DHT22;1608;50.860;13.466;2022-08-01T12:35:04;27.50;92.60
3194;DHT22;1608;50.860;13.466;2022-08-01T12:37:32;27.50;91.60
3194;DHT22;1608;50.860;13.466;2022-08-01T12:39:59;27.50;90.20
3194;DHT22;1608;50.860;13.466;2022-08-01T12:42:26;27.50;90.80
3194;DHT22;1608;50.860;13.466;2022-08-01T12:44:54;27.30;92.30
3194;DHT22;1608;50.860;13.466;2022-08-01T12:47:21;27.10;93.40
3194;DHT22;1608;50.860;13.466;2022-08-01T12:49:50;26.80;93.50
3194;DHT22;1608;50.860;13.466;2022-08-01T12:52:18;26.70;94.30
3194;DHT22;1608;50.860;13.466;2022-08-01T12:55:05;26.80;93.70
3194;DHT22;1608;50.860;13.466;2022-08-01T12:57:33;26.90;92.30
3194;DHT22;1608;50.860;13.466;2022-08-01T13:00:18;26.80;92.00
3194;DHT22;1608;50.860;13.466;2022-08-01T13:02:47;26.90;92.70
3194;DHT22;1608;50.860;13.466;2022-08-01T13:05:14;26.90;92.50
3194;DHT22;1608;50.860;13.466;2022-08-01T13:07:46;26.70;95.90
3194;DHT22;1608;50.860;13.466;2022-08-01T13:10:14;26.70;93.30
3194;DHT22;1608;50.860;13.466;2022-08-01T13:12:51;26.70;93.40
3194;DHT22;1608;50.860;13.466;2022-08-01T13:15:21;26.50;94.00
3194;DHT22;1608;50.860;13.466;2022-08-01T13:17:48;26.90;94.70
3194;DHT22;1608;50.860;13.466;2022-08-01T13:20:29;26.30;93.90
3194;DHT22;1608;50.860;13.466;2022-08-01T13:23:13;26.20;95.30
3194;DHT22;1608;50.860;13.466;2022-08-01T13:25:50;26.50;94.50
3194;DHT22;1608;50.860;13.466;2022-08-01T13:28:19;26.70;93.10
3194;DHT22;1608;50.860;13.466;2022-08-01T13:30:53;26.80;93.50
3194;DHT22;1608;50.860;13.466;2022-08-01T13:33:20;26.90;92.40
3194;DHT22;1608;50.860;13.466;2022-08-01T13:35:49;27.00;91.70
3194;DHT22;1608;50.860;13.466;2022-08-01T13:38:18;27.20;91.10
3194;DHT22;1608;50.860;13.466;2022-08-01T13:40:45;27.30;91.30
3194;DHT22;1608;50.860;13.466;2022-08-01T13:43:11;27.40;90.10
3194;DHT22;1608;50.860;13.466;2022-08-01T13:45:39;27.40;90.10
3194;DHT22;1608;50.860;13.466;2022-08-01T13:48:06;27.10;91.30
3194;DHT22;1608;50.860;13.466;2022-08-01T13:50:33;27.00;91.70
3194;DHT22;1608;50.860;13.466;2022-08-01T13:52:59;27.00;92.20
3194;DHT22;1608;50.860;13.466;2022-08-01T13:55:28;26.90;91.40
3194;DHT22;1608;50.860;13.466;2022-08-01T13:57:54;26.90;93.30
3194;DHT22;1608;50.860;13.466;2022-08-01T14:00:21;26.90;90.80
3194;DHT22;1608;50.860;13.466;2022-08-01T14:02:48;27.00;90.80
3194;DHT22;1608;50.860;13.466;2022-08-01T14:05:15;27.20;89.70
3194;DHT22;1608;50.860;13.466;2022-08-01T14:07:42;27.00;91.10
3194;DHT22;1608;50.860;13.466;2022-08-01T14:10:10;27.10;88.80
3194;DHT22;1608;50.860;13.466;2022-08-01T14:12:38;27.00;90.30
3194;DHT22;1608;50.860;13.466;2022-08-01T14:15:06;26.60;91.00
3194;DHT22;1608;50.860;13.466;2022-08-01T14:17:33;26.70;91.00
3194;DHT22;1608;50.860;13.466;2022-08-01T14:20:00;26.60;90.50
3194;DHT22;1608;50.860;13.466;2022-08-01T14:22:28;26.50;90.90
3194;DHT22;1608;50.860;13.466;2022-08-01T14:24:54;26.30;91.60
3194;DHT22;1608;50.860;13.466;2022-08-01T14:27:21;26.50;91.80
3194;DHT22;1608;50.860;13.466;2022-08-01T14:29:49;26.70;91.00
3194;DHT22;1608;50.860;13.466;2022-08-01T14:32:16;26.90;91.20
3194;DHT22;1608;50.860;13.466;2022-08-01T14:34:42;26.80;90.80
3194;DHT22;1608;50.860;13.466;2022-08-01T14:37:09;26.80;90.40
3194;DHT22;1608;50.860;13.466;2022-08-01T14:39:36;26.70;90.00
3194;DHT22;1608;50.860;13.466;2022-08-01T14:42:03;26.70;90.30
3194;DHT22;1608;50.860;13.466;2022-08-01T14:44:30;26.80;90.00
3194;DHT22;1608;50.860;13.466;2022-08-01T14:46:58;26.80;90.60
3194;DHT22;1608;50.860;13.466;2022-08-01T14:49:25;26.60;90.50
3194;DHT22;1608;50.860;13.466;2022-08-01T14:51:52;26.50;91.00
3194;DHT22;1608;50.860;13.466;2022-08-01T14:54:18;26.30;91.50
3194;DHT22;1608;50.860;13.466;2022-08-01T14:56:45;26.40;91.80
3194;DHT22;1608;50.860;13.466;2022-08-01T14:59:12;26.70;90.50
3194;DHT22;1608;50.860;13.466;2022-08-01T15:01:39;26.80;91.00
3194;DHT22;1608;50.860;13.466;2022-08-01T15:04:07;26.70;90.60
3194;DHT22;1608;50.860;13.466;2022-08-01T15:06:34;28.40;91.10
3194;DHT22;1608;50.860;13.466;2022-08-01T15:09:00;26.80;90.50
3194;DHT22;1608;50.860;13.466;2022-08-01T15:11:27;26.90;90.50
3194;DHT22;1608;50.860;13.466;2022-08-01T15:13:54;27.10;90.50
3194;DHT22;1608;50.860;13.466;2022-08-01T15:16:35;27.00;90.20
3194;DHT22;1608;50.860;13.466;2022-08-01T15:19:01;26.90;90.00
3194;DHT22;1608;50.860;13.466;2022-08-01T15:21:29;26.90;90.80
3194;DHT22;1608;50.860;13.466;2022-08-01T15:23:56;26.70;90.70
3194;DHT22;1608;50.860;13.466;2022-08-01T15:26:23;26.60;90.60
3194;DHT22;1608;50.860;13.466;2022-08-01T15:28:50;26.40;90.90
3194;DHT22;1608;50.860;13.466;2022-08-01T15:31:17;26.30;90.80
3194;DHT22;1608;50.860;13.466;2022-08-01T15:33:44;26.20;90.80
3194;DHT22;1608;50.860;13.466;2022-08-01T15:36:10;26.30;91.30
3194;DHT22;1608;50.860;13.466;2022-08-01T15:38:38;26.50;90.90
3194;DHT22;1608;50.860;13.466;2022-08-01T15:41:05;26.50;91.00
3194;DHT22;1608;50.860;13.466;2022-08-01T15:43:32;26.60;91.10
3194;DHT22;1608;50.860;13.466;2022-08-01T15:45:59;26.30;91.70
3194;DHT22;1608;50.860;13.466;2022-08-01T15:48:26;26.20;91.90
3194;DHT22;1608;50.860;13.466;2022-08-01T15:50:53;26.10;92.10
3194;DHT22;1608;50.860;13.466;2022-08-01T15:53:20;26.40;91.90
3194;DHT22;1608;50.860;13.466;2022-08-01T15:55:48;26.40;91.30
3194;DHT22;1608;50.860;13.466;2022-08-01T15:58:15;25.80;91.50
3194;DHT22;1608;50.860;13.466;2022-08-01T16:00:42;25.80;91.90
3194;DHT22;1608;50.860;13.466;2022-08-01T16:03:09;25.80;92.00
3194;DHT22;1608;50.860;13.466;2022-08-01T16:05:36;25.70;92.40
3194;DHT22;1608;50.860;13.466;2022-08-01T16:08:03;25.70;92.30
3194;DHT22;1608;50.860;13.466;2022-08-01T16:10:30;25.80;92.40